GIA1010 WIII-OEJN
Flight info
| Callsign | GIA1010 |
|---|---|
| Flight time | 9h 17m |
| Altitude | 34000 |
| Route | RIMTI1B RIMTI M766 KAT P570 BASUR/N0488F360 P570 TVM UL425 ASPUX L425 DEDSO/N0482F380 L425 GOBRO DCT AMBIT L425 BOSUT BOSUT2L |
| Aircraft | B77W/H-SDE1E2E3FGHIJ2J3J4J5M1RWXY/LB1D1 |
Departure
| Time | 2026-04-30 12:27 |
|---|---|
| Airport | Soekarno-Hatta International Airport (WIII) |
Arrival
| Time | 2026-04-30 21:45 |
|---|---|
| Airport | King Abdulaziz International Airport (OEJN) |
| Time | Latitude | Longitude | Altitude | Speed | Heading |
|---|---|---|---|---|---|
| 2026-04-30 11:35 | -6.11664 | 106.66672 | 43 ft | 0 kts | 156° |
| 2026-04-30 12:11 | -6.11662 | 106.66671 | 43 ft | 1 kts | 156° |
| 2026-04-30 12:11 | -6.11647 | 106.66665 | 41 ft | 2 kts | 158° |
| 2026-04-30 12:12 | -6.11627 | 106.66657 | 40 ft | 3 kts | 159° |
| 2026-04-30 12:12 | -6.11612 | 106.66651 | 39 ft | 2 kts | 160° |
| 2026-04-30 12:12 | -6.11594 | 106.66646 | 42 ft | 3 kts | 179° |
| 2026-04-30 12:12 | -6.11578 | 106.66648 | 38 ft | 3 kts | 204° |
| 2026-04-30 12:13 | -6.11565 | 106.66656 | 40 ft | 2 kts | 229° |
| 2026-04-30 12:13 | -6.11554 | 106.66671 | 42 ft | 3 kts | 244° |
| 2026-04-30 12:13 | -6.11546 | 106.66689 | 41 ft | 2 kts | 248° |
| 2026-04-30 12:13 | -6.11541 | 106.66703 | 38 ft | 1 kts | 247° |
| 2026-04-30 12:14 | -6.11539 | 106.66706 | 41 ft | 3 kts | 247° |
| 2026-04-30 12:18 | -6.11540 | 106.66705 | 41 ft | 2 kts | 247° |
| 2026-04-30 12:18 | -6.11562 | 106.66651 | 40 ft | 10 kts | 247° |
| 2026-04-30 12:18 | -6.11588 | 106.66588 | 43 ft | 10 kts | 248° |
| 2026-04-30 12:18 | -6.11613 | 106.66525 | 43 ft | 10 kts | 249° |
| 2026-04-30 12:19 | -6.11636 | 106.66462 | 43 ft | 10 kts | 250° |
| 2026-04-30 12:19 | -6.11619 | 106.66400 | 43 ft | 10 kts | 319° |
| 2026-04-30 12:19 | -6.11557 | 106.66371 | 43 ft | 12 kts | 338° |
| 2026-04-30 12:19 | -6.11462 | 106.66333 | 43 ft | 16 kts | 338° |
| 2026-04-30 12:20 | -6.11364 | 106.66287 | 43 ft | 15 kts | 320° |
| 2026-04-30 12:20 | -6.11347 | 106.66235 | 43 ft | 7 kts | 259° |
| 2026-04-30 12:20 | -6.11381 | 106.66155 | 43 ft | 16 kts | 248° |
| 2026-04-30 12:20 | -6.11423 | 106.66051 | 43 ft | 16 kts | 248° |
| 2026-04-30 12:21 | -6.11465 | 106.65944 | 42 ft | 16 kts | 248° |
| 2026-04-30 12:21 | -6.11507 | 106.65839 | 42 ft | 17 kts | 248° |
| 2026-04-30 12:21 | -6.11557 | 106.65715 | 42 ft | 21 kts | 248° |
| 2026-04-30 12:21 | -6.11610 | 106.65582 | 42 ft | 21 kts | 248° |
| 2026-04-30 12:22 | -6.11663 | 106.65448 | 42 ft | 21 kts | 248° |
| 2026-04-30 12:22 | -6.11717 | 106.65314 | 43 ft | 21 kts | 248° |
| 2026-04-30 12:22 | -6.11769 | 106.65182 | 43 ft | 21 kts | 248° |
| 2026-04-30 12:22 | -6.11822 | 106.65048 | 43 ft | 21 kts | 248° |
| 2026-04-30 12:23 | -6.11876 | 106.64915 | 43 ft | 21 kts | 248° |
| 2026-04-30 12:23 | -6.11929 | 106.64781 | 43 ft | 21 kts | 248° |
| 2026-04-30 12:23 | -6.11982 | 106.64647 | 43 ft | 21 kts | 248° |
| 2026-04-30 12:23 | -6.12036 | 106.64514 | 43 ft | 21 kts | 248° |
| 2026-04-30 12:24 | -6.12089 | 106.64380 | 43 ft | 21 kts | 248° |
| 2026-04-30 12:24 | -6.12142 | 106.64246 | 43 ft | 21 kts | 248° |
| 2026-04-30 12:24 | -6.12189 | 106.64131 | 40 ft | 17 kts | 248° |
| 2026-04-30 12:24 | -6.12232 | 106.64022 | 43 ft | 17 kts | 248° |
| 2026-04-30 12:25 | -6.12237 | 106.63917 | 44 ft | 16 kts | 301° |
| 2026-04-30 12:25 | -6.12143 | 106.63893 | 44 ft | 15 kts | 11° |
| 2026-04-30 12:25 | -6.12076 | 106.63928 | 43 ft | 8 kts | 56° |
| 2026-04-30 12:25 | -6.12067 | 106.63948 | 43 ft | 0 kts | 66° |
| 2026-04-30 12:27 | -6.12045 | 106.64000 | 42 ft | 24 kts | 68° |
| 2026-04-30 12:27 | -6.11874 | 106.64430 | 43 ft | 113 kts | 68° |
| 2026-04-30 12:27 | -6.11484 | 106.65459 | 87 ft | 196 kts | 72° |
| 2026-04-30 12:27 | -6.10928 | 106.66782 | 962 ft | 206 kts | 64° |
| 2026-04-30 12:28 | -6.10167 | 106.67949 | 2269 ft | 207 kts | 44° |
| 2026-04-30 12:28 | -6.09375 | 106.68524 | 2493 ft | 218 kts | 33° |
| 2026-04-30 12:28 | -6.08020 | 106.69337 | 2867 ft | 232 kts | 32° |
| 2026-04-30 12:28 | -6.06593 | 106.70212 | 3374 ft | 246 kts | 33° |
| 2026-04-30 12:29 | -6.05117 | 106.71139 | 4017 ft | 252 kts | 33° |
| 2026-04-30 12:29 | -6.03607 | 106.72106 | 4662 ft | 261 kts | 33° |
| 2026-04-30 12:29 | -6.02056 | 106.73108 | 5352 ft | 267 kts | 33° |
| 2026-04-30 12:29 | -6.00486 | 106.74119 | 6074 ft | 270 kts | 30° |
| 2026-04-30 12:30 | -5.98706 | 106.74715 | 6609 ft | 277 kts | 2° |
| 2026-04-30 12:30 | -5.96808 | 106.74346 | 7195 ft | 284 kts | 334° |
| 2026-04-30 12:30 | -5.95298 | 106.73100 | 7789 ft | 292 kts | 305° |
| 2026-04-30 12:30 | -5.94335 | 106.71263 | 8420 ft | 295 kts | 295° |
| 2026-04-30 12:31 | -5.93488 | 106.69391 | 9135 ft | 297 kts | 295° |
| 2026-04-30 12:31 | -5.92626 | 106.67487 | 9861 ft | 302 kts | 295° |
| 2026-04-30 12:31 | -5.91729 | 106.65527 | 10443 ft | 310 kts | 295° |
| 2026-04-30 12:31 | -5.90801 | 106.63516 | 10631 ft | 333 kts | 295° |
| 2026-04-30 12:32 | -5.89789 | 106.61333 | 10812 ft | 356 kts | 295° |
| 2026-04-30 12:32 | -5.88708 | 106.59009 | 10974 ft | 378 kts | 295° |
| 2026-04-30 12:32 | -5.87574 | 106.56577 | 11433 ft | 390 kts | 295° |
| 2026-04-30 12:32 | -5.86413 | 106.54086 | 12004 ft | 398 kts | 295° |
| 2026-04-30 12:33 | -5.85231 | 106.51551 | 12675 ft | 403 kts | 295° |
| 2026-04-30 12:33 | -5.84036 | 106.48987 | 13350 ft | 407 kts | 295° |
| 2026-04-30 12:33 | -5.82835 | 106.46413 | 13985 ft | 411 kts | 295° |
| 2026-04-30 12:33 | -5.81621 | 106.43805 | 14583 ft | 415 kts | 295° |
| 2026-04-30 12:34 | -5.80386 | 106.41144 | 15186 ft | 419 kts | 295° |
| 2026-04-30 12:34 | -5.79173 | 106.38529 | 15769 ft | 422 kts | 295° |
| 2026-04-30 12:34 | -5.77918 | 106.35825 | 16350 ft | 426 kts | 295° |
| 2026-04-30 12:34 | -5.76657 | 106.33107 | 16918 ft | 430 kts | 295° |
| 2026-04-30 12:35 | -5.75383 | 106.30362 | 17484 ft | 434 kts | 296° |
| 2026-04-30 12:35 | -5.74104 | 106.27609 | 18032 ft | 438 kts | 296° |
| 2026-04-30 12:35 | -5.72790 | 106.24831 | 18513 ft | 442 kts | 296° |
| 2026-04-30 12:35 | -5.71430 | 106.22046 | 19004 ft | 445 kts | 297° |
| 2026-04-30 12:36 | -5.70052 | 106.19257 | 19510 ft | 448 kts | 297° |
| 2026-04-30 12:36 | -5.68658 | 106.16441 | 20010 ft | 450 kts | 297° |
| 2026-04-30 12:36 | -5.67280 | 106.13653 | 20486 ft | 453 kts | 297° |
| 2026-04-30 12:36 | -5.65875 | 106.10803 | 20959 ft | 456 kts | 297° |
| 2026-04-30 12:37 | -5.64471 | 106.07947 | 21424 ft | 459 kts | 297° |
| 2026-04-30 12:37 | -5.63050 | 106.05053 | 21896 ft | 462 kts | 297° |
| 2026-04-30 12:37 | -5.61624 | 106.02145 | 22347 ft | 465 kts | 297° |
| 2026-04-30 12:37 | -5.60188 | 105.99220 | 22796 ft | 468 kts | 297° |
| 2026-04-30 12:38 | -5.58739 | 105.96265 | 23226 ft | 471 kts | 297° |
| 2026-04-30 12:38 | -5.57290 | 105.93313 | 23627 ft | 474 kts | 297° |
| 2026-04-30 12:38 | -5.55825 | 105.90330 | 23976 ft | 477 kts | 297° |
| 2026-04-30 12:38 | -5.54357 | 105.87339 | 24338 ft | 479 kts | 297° |
| 2026-04-30 12:39 | -5.52881 | 105.84334 | 24694 ft | 481 kts | 297° |
| 2026-04-30 12:39 | -5.51392 | 105.81303 | 24865 ft | 486 kts | 297° |
| 2026-04-30 12:39 | -5.49886 | 105.78237 | 24894 ft | 486 kts | 297° |
| 2026-04-30 12:39 | -5.48398 | 105.75207 | 24922 ft | 484 kts | 297° |
| 2026-04-30 12:40 | -5.46912 | 105.72183 | 24924 ft | 483 kts | 297° |
| 2026-04-30 12:40 | -5.45424 | 105.69153 | 24931 ft | 483 kts | 297° |
| 2026-04-30 12:40 | -5.43941 | 105.66138 | 24935 ft | 483 kts | 297° |
| 2026-04-30 12:40 | -5.42455 | 105.63113 | 24933 ft | 483 kts | 297° |
| 2026-04-30 12:41 | -5.41090 | 105.60025 | 25084 ft | 488 kts | 292° |
| 2026-04-30 12:41 | -5.39879 | 105.56828 | 25439 ft | 489 kts | 291° |
| 2026-04-30 12:41 | -5.38735 | 105.53613 | 25843 ft | 490 kts | 290° |
| 2026-04-30 12:41 | -5.37595 | 105.50396 | 26210 ft | 491 kts | 290° |
| 2026-04-30 12:42 | -5.36429 | 105.47169 | 26527 ft | 494 kts | 291° |
| 2026-04-30 12:42 | -5.35227 | 105.43910 | 26834 ft | 496 kts | 291° |
| 2026-04-30 12:42 | -5.34012 | 105.40665 | 27128 ft | 499 kts | 291° |
| 2026-04-30 12:42 | -5.32784 | 105.37409 | 27441 ft | 501 kts | 291° |
| 2026-04-30 12:43 | -5.31545 | 105.34128 | 27754 ft | 502 kts | 292° |
| 2026-04-30 12:43 | -5.30306 | 105.30844 | 28043 ft | 504 kts | 292° |
| 2026-04-30 12:43 | -5.29064 | 105.27544 | 28321 ft | 506 kts | 291° |
| 2026-04-30 12:43 | -5.27834 | 105.24275 | 28591 ft | 508 kts | 291° |
| 2026-04-30 12:44 | -5.26583 | 105.20953 | 28844 ft | 510 kts | 291° |
| 2026-04-30 12:44 | -5.25229 | 105.17645 | 29122 ft | 510 kts | 296° |
| 2026-04-30 12:44 | -5.23709 | 105.14443 | 29480 ft | 509 kts | 297° |
| 2026-04-30 12:44 | -5.22149 | 105.11242 | 29892 ft | 508 kts | 297° |
| 2026-04-30 12:45 | -5.20597 | 105.08075 | 30238 ft | 506 kts | 297° |
| 2026-04-30 12:45 | -5.19045 | 105.04898 | 30534 ft | 506 kts | 297° |
| 2026-04-30 12:45 | -5.17504 | 105.01726 | 30823 ft | 507 kts | 297° |
| 2026-04-30 12:45 | -5.15969 | 104.98548 | 31118 ft | 506 kts | 297° |
| 2026-04-30 12:46 | -5.14435 | 104.95362 | 31430 ft | 506 kts | 297° |
| 2026-04-30 12:46 | -5.12902 | 104.92172 | 31747 ft | 506 kts | 297° |
| 2026-04-30 12:46 | -5.11397 | 104.89039 | 32071 ft | 505 kts | 297° |
| 2026-04-30 12:46 | -5.09872 | 104.85866 | 32373 ft | 505 kts | 297° |
| 2026-04-30 12:47 | -5.08347 | 104.82694 | 32668 ft | 504 kts | 297° |
| 2026-04-30 12:47 | -5.06823 | 104.79526 | 32961 ft | 504 kts | 297° |
| 2026-04-30 12:47 | -5.05293 | 104.76348 | 33284 ft | 503 kts | 297° |
| 2026-04-30 12:47 | -5.03775 | 104.73195 | 33579 ft | 503 kts | 297° |
| 2026-04-30 12:48 | -5.02249 | 104.70027 | 33823 ft | 504 kts | 297° |
| 2026-04-30 12:48 | -5.00721 | 104.66855 | 33903 ft | 508 kts | 297° |
| 2026-04-30 12:48 | -4.97628 | 104.60432 | 33974 ft | 511 kts | 297° |
| 2026-04-30 12:49 | -4.94551 | 104.54041 | 33972 ft | 507 kts | 297° |
| 2026-04-30 12:49 | -4.91493 | 104.47695 | 33986 ft | 504 kts | 297° |
| 2026-04-30 12:50 | -4.88435 | 104.41419 | 33990 ft | 503 kts | 297° |
| 2026-04-30 12:50 | -4.85319 | 104.35082 | 33994 ft | 504 kts | 297° |
| 2026-04-30 12:51 | -4.82233 | 104.28802 | 33983 ft | 506 kts | 297° |
| 2026-04-30 12:51 | -4.79119 | 104.22456 | 33991 ft | 508 kts | 297° |
| 2026-04-30 12:52 | -4.75998 | 104.16092 | 33984 ft | 509 kts | 297° |
| 2026-04-30 12:52 | -4.72872 | 104.09717 | 33979 ft | 510 kts | 297° |
| 2026-04-30 12:53 | -4.69733 | 104.03322 | 33980 ft | 510 kts | 297° |
| 2026-04-30 12:53 | -4.66602 | 103.96941 | 33980 ft | 510 kts | 297° |
| 2026-04-30 12:54 | -4.63471 | 103.90564 | 33980 ft | 510 kts | 297° |
| 2026-04-30 12:54 | -4.60342 | 103.84194 | 33989 ft | 509 kts | 297° |
| 2026-04-30 12:55 | -4.57209 | 103.77817 | 33991 ft | 509 kts | 297° |
| 2026-04-30 12:55 | -4.54078 | 103.71444 | 33995 ft | 509 kts | 297° |
| 2026-04-30 12:56 | -4.50967 | 103.65116 | 33997 ft | 509 kts | 297° |
| 2026-04-30 12:56 | -4.47841 | 103.58756 | 34006 ft | 509 kts | 297° |
| 2026-04-30 12:57 | -4.44704 | 103.52378 | 34010 ft | 509 kts | 297° |
| 2026-04-30 12:57 | -4.41583 | 103.46033 | 34008 ft | 509 kts | 297° |
| 2026-04-30 12:58 | -4.38453 | 103.39671 | 34001 ft | 509 kts | 297° |
| 2026-04-30 12:58 | -4.35319 | 103.33304 | 34005 ft | 509 kts | 297° |
| 2026-04-30 12:59 | -4.32180 | 103.26927 | 34000 ft | 510 kts | 297° |
| 2026-04-30 12:59 | -4.29063 | 103.20597 | 33992 ft | 510 kts | 297° |
| 2026-04-30 13:00 | -4.25923 | 103.14222 | 33993 ft | 510 kts | 297° |
| 2026-04-30 13:00 | -4.22785 | 103.07851 | 33987 ft | 510 kts | 297° |
| 2026-04-30 13:01 | -4.19636 | 103.01462 | 33991 ft | 511 kts | 297° |
| 2026-04-30 13:01 | -4.16492 | 102.95081 | 33979 ft | 512 kts | 297° |
| 2026-04-30 13:02 | -4.13334 | 102.88675 | 33969 ft | 512 kts | 297° |
| 2026-04-30 13:02 | -4.10182 | 102.82283 | 33971 ft | 512 kts | 297° |
| 2026-04-30 13:03 | -4.07022 | 102.75879 | 33959 ft | 512 kts | 297° |
| 2026-04-30 13:03 | -4.03872 | 102.69492 | 33956 ft | 511 kts | 297° |
| 2026-04-30 13:04 | -4.00729 | 102.63124 | 33946 ft | 510 kts | 297° |
| 2026-04-30 13:04 | -3.97617 | 102.56818 | 33944 ft | 509 kts | 297° |
| 2026-04-30 13:05 | -3.94472 | 102.50447 | 33943 ft | 508 kts | 297° |
| 2026-04-30 13:06 | -3.89771 | 102.40924 | 33938 ft | 508 kts | 297° |
| 2026-04-30 13:06 | -3.86629 | 102.34565 | 33935 ft | 508 kts | 297° |
| 2026-04-30 13:07 | -3.83486 | 102.28218 | 33932 ft | 509 kts | 297° |
| 2026-04-30 13:07 | -3.80334 | 102.21866 | 33934 ft | 510 kts | 297° |
| 2026-04-30 13:08 | -3.77200 | 102.15549 | 33932 ft | 510 kts | 297° |
| 2026-04-30 13:08 | -3.74033 | 102.09162 | 33934 ft | 511 kts | 297° |
| 2026-04-30 13:09 | -3.70875 | 102.02795 | 33930 ft | 511 kts | 297° |
| 2026-04-30 13:09 | -3.67706 | 101.96407 | 33928 ft | 511 kts | 297° |
| 2026-04-30 13:10 | -3.64540 | 101.90026 | 33930 ft | 511 kts | 297° |
| 2026-04-30 13:10 | -3.61910 | 101.84727 | 33928 ft | 511 kts | 297° |
| 2026-04-30 13:11 | -3.58748 | 101.78358 | 33929 ft | 511 kts | 297° |
| 2026-04-30 13:11 | -3.55067 | 101.70944 | 33932 ft | 511 kts | 297° |
| 2026-04-30 13:12 | -3.51899 | 101.64564 | 33930 ft | 510 kts | 297° |
| 2026-04-30 13:12 | -3.49257 | 101.59245 | 33923 ft | 510 kts | 297° |
| 2026-04-30 13:13 | -3.44544 | 101.49760 | 33927 ft | 509 kts | 297° |
| 2026-04-30 13:14 | -3.39814 | 101.40244 | 33931 ft | 508 kts | 298° |
| 2026-04-30 13:14 | -3.35098 | 101.30755 | 33926 ft | 508 kts | 298° |
| 2026-04-30 13:15 | -3.30393 | 101.21295 | 33930 ft | 507 kts | 297° |
| 2026-04-30 13:16 | -3.27234 | 101.14945 | 33926 ft | 507 kts | 297° |
| 2026-04-30 13:16 | -3.24093 | 101.08630 | 33923 ft | 507 kts | 297° |
| 2026-04-30 13:17 | -3.19378 | 100.99155 | 33929 ft | 506 kts | 297° |
| 2026-04-30 13:18 | -3.14690 | 100.89736 | 33927 ft | 506 kts | 297° |
| 2026-04-30 13:18 | -3.09977 | 100.80271 | 33928 ft | 506 kts | 297° |
| 2026-04-30 13:19 | -3.06838 | 100.73968 | 33928 ft | 506 kts | 297° |
| 2026-04-30 13:19 | -3.03696 | 100.67659 | 33926 ft | 506 kts | 297° |
| 2026-04-30 13:20 | -3.00577 | 100.61398 | 33929 ft | 506 kts | 297° |
| 2026-04-30 13:20 | -2.97442 | 100.55107 | 33927 ft | 506 kts | 297° |
| 2026-04-30 13:21 | -2.94280 | 100.48760 | 33927 ft | 506 kts | 297° |
| 2026-04-30 13:22 | -2.89589 | 100.39350 | 33928 ft | 506 kts | 297° |
| 2026-04-30 13:22 | -2.84848 | 100.29841 | 33926 ft | 506 kts | 297° |
| 2026-04-30 13:23 | -2.80147 | 100.20414 | 33921 ft | 506 kts | 297° |
| 2026-04-30 13:24 | -2.73854 | 100.07797 | 33924 ft | 506 kts | 297° |
| 2026-04-30 13:25 | -2.67578 | 99.95220 | 33922 ft | 505 kts | 297° |
| 2026-04-30 13:26 | -2.59738 | 99.79514 | 33920 ft | 505 kts | 297° |
| 2026-04-30 13:28 | -2.51903 | 99.63819 | 33922 ft | 504 kts | 297° |
| 2026-04-30 13:28 | -2.47201 | 99.54393 | 33919 ft | 505 kts | 296° |
| 2026-04-30 13:29 | -2.41208 | 99.41702 | 33917 ft | 507 kts | 295° |
| 2026-04-30 13:31 | -2.33681 | 99.25724 | 33917 ft | 509 kts | 295° |
| 2026-04-30 13:32 | -2.26112 | 99.09717 | 33917 ft | 509 kts | 296° |
| 2026-04-30 13:33 | -2.20079 | 98.96959 | 33915 ft | 509 kts | 296° |
| 2026-04-30 13:34 | -2.15541 | 98.87364 | 33916 ft | 508 kts | 296° |
| 2026-04-30 13:35 | -2.09491 | 98.74577 | 33910 ft | 509 kts | 296° |
| 2026-04-30 13:36 | -2.03458 | 98.61827 | 33913 ft | 509 kts | 296° |
| 2026-04-30 13:36 | -1.98906 | 98.52209 | 33913 ft | 509 kts | 296° |
| 2026-04-30 13:37 | -1.94362 | 98.42610 | 33916 ft | 509 kts | 296° |
| 2026-04-30 13:38 | -1.89844 | 98.33068 | 33914 ft | 509 kts | 296° |
| 2026-04-30 13:39 | -1.83780 | 98.20263 | 33912 ft | 508 kts | 296° |
| 2026-04-30 13:40 | -1.79240 | 98.10678 | 33911 ft | 508 kts | 296° |
| 2026-04-30 13:40 | -1.76215 | 98.04291 | 33913 ft | 508 kts | 296° |
| 2026-04-30 13:41 | -1.73218 | 97.97966 | 33912 ft | 508 kts | 296° |
| 2026-04-30 13:41 | -1.70182 | 97.91559 | 33915 ft | 508 kts | 296° |
| 2026-04-30 13:42 | -1.67157 | 97.85173 | 33916 ft | 508 kts | 296° |
| 2026-04-30 13:42 | -1.62612 | 97.75580 | 33916 ft | 509 kts | 296° |
| 2026-04-30 13:43 | -1.59580 | 97.69184 | 33915 ft | 509 kts | 296° |
| 2026-04-30 13:43 | -1.56519 | 97.62838 | 33917 ft | 510 kts | 296° |
| 2026-04-30 13:44 | -1.53394 | 97.56469 | 33914 ft | 510 kts | 296° |
| 2026-04-30 13:44 | -1.50272 | 97.50102 | 33915 ft | 511 kts | 296° |
| 2026-04-30 13:45 | -1.45591 | 97.40518 | 33918 ft | 511 kts | 296° |
| 2026-04-30 13:46 | -1.42475 | 97.34133 | 33913 ft | 511 kts | 296° |
| 2026-04-30 13:46 | -1.39362 | 97.27754 | 33920 ft | 511 kts | 296° |
| 2026-04-30 13:47 | -1.36238 | 97.21355 | 33919 ft | 511 kts | 296° |
| 2026-04-30 13:47 | -1.33122 | 97.14972 | 33917 ft | 511 kts | 296° |
| 2026-04-30 13:48 | -1.30001 | 97.08582 | 33921 ft | 511 kts | 296° |
| 2026-04-30 13:48 | -1.26901 | 97.02234 | 33917 ft | 511 kts | 296° |
| 2026-04-30 13:49 | -1.23788 | 96.95859 | 33920 ft | 511 kts | 296° |
| 2026-04-30 13:49 | -1.20666 | 96.89467 | 33918 ft | 510 kts | 296° |
| 2026-04-30 13:50 | -1.17556 | 96.83098 | 33916 ft | 510 kts | 296° |
| 2026-04-30 13:50 | -1.12891 | 96.73549 | 33918 ft | 510 kts | 297° |
| 2026-04-30 13:51 | -1.09781 | 96.67182 | 33920 ft | 509 kts | 297° |
| 2026-04-30 13:51 | -1.06680 | 96.60835 | 33920 ft | 508 kts | 297° |
| 2026-04-30 13:52 | -1.03580 | 96.54490 | 33917 ft | 507 kts | 296° |
| 2026-04-30 13:52 | -1.00505 | 96.48196 | 33919 ft | 506 kts | 296° |
| 2026-04-30 13:53 | -0.97420 | 96.41883 | 33920 ft | 505 kts | 296° |
| 2026-04-30 13:53 | -0.94842 | 96.36607 | 33921 ft | 503 kts | 296° |
| 2026-04-30 13:54 | -0.91279 | 96.29315 | 33919 ft | 502 kts | 296° |
| 2026-04-30 13:54 | -0.88220 | 96.23057 | 33920 ft | 500 kts | 296° |
| 2026-04-30 13:55 | -0.85171 | 96.16819 | 33920 ft | 500 kts | 296° |
| 2026-04-30 13:55 | -0.82120 | 96.10577 | 33921 ft | 500 kts | 296° |
| 2026-04-30 13:56 | -0.79069 | 96.04333 | 33917 ft | 500 kts | 296° |
| 2026-04-30 13:56 | -0.76008 | 95.98071 | 33918 ft | 502 kts | 296° |
| 2026-04-30 13:57 | -0.73457 | 95.92854 | 33920 ft | 503 kts | 296° |
| 2026-04-30 13:57 | -0.69886 | 95.85548 | 33919 ft | 504 kts | 296° |
| 2026-04-30 13:58 | -0.65777 | 95.77143 | 33920 ft | 505 kts | 296° |
| 2026-04-30 13:59 | -0.62690 | 95.70828 | 33921 ft | 505 kts | 296° |
| 2026-04-30 13:59 | -0.59610 | 95.64527 | 33919 ft | 505 kts | 296° |
| 2026-04-30 14:00 | -0.56522 | 95.58211 | 33921 ft | 505 kts | 296° |
| 2026-04-30 14:00 | -0.51891 | 95.48741 | 33918 ft | 505 kts | 296° |
| 2026-04-30 14:01 | -0.48807 | 95.42433 | 33928 ft | 505 kts | 296° |
| 2026-04-30 14:01 | -0.45727 | 95.36134 | 33923 ft | 505 kts | 296° |
| 2026-04-30 14:02 | -0.42643 | 95.29826 | 33922 ft | 505 kts | 296° |
| 2026-04-30 14:02 | -0.39579 | 95.23560 | 33922 ft | 505 kts | 296° |
| 2026-04-30 14:03 | -0.36495 | 95.17251 | 33918 ft | 505 kts | 296° |
| 2026-04-30 14:03 | -0.33408 | 95.10937 | 33918 ft | 505 kts | 296° |
| 2026-04-30 14:04 | -0.30322 | 95.04627 | 33920 ft | 505 kts | 296° |
| 2026-04-30 14:04 | -0.27237 | 94.98320 | 33923 ft | 506 kts | 296° |
| 2026-04-30 14:05 | -0.24154 | 94.92013 | 33925 ft | 506 kts | 296° |
| 2026-04-30 14:05 | -0.21082 | 94.85726 | 33922 ft | 506 kts | 296° |
| 2026-04-30 14:06 | -0.16437 | 94.76222 | 33923 ft | 507 kts | 296° |
| 2026-04-30 14:07 | -0.11792 | 94.66721 | 33922 ft | 507 kts | 296° |
| 2026-04-30 14:08 | -0.07150 | 94.57223 | 33927 ft | 507 kts | 296° |
| 2026-04-30 14:08 | -0.02503 | 94.47716 | 33923 ft | 507 kts | 296° |
| 2026-04-30 14:09 | 0.00591 | 94.41386 | 33925 ft | 507 kts | 296° |
| 2026-04-30 14:10 | 0.05219 | 94.31917 | 33924 ft | 507 kts | 296° |
| 2026-04-30 14:10 | 0.08314 | 94.25584 | 33921 ft | 507 kts | 296° |
| 2026-04-30 14:11 | 0.11414 | 94.19243 | 33926 ft | 507 kts | 296° |
| 2026-04-30 14:11 | 0.14512 | 94.12904 | 33927 ft | 507 kts | 297° |
| 2026-04-30 14:12 | 0.17608 | 94.06571 | 33926 ft | 507 kts | 297° |
| 2026-04-30 14:12 | 0.20702 | 94.00239 | 33926 ft | 507 kts | 297° |
| 2026-04-30 14:13 | 0.23797 | 93.93908 | 33923 ft | 507 kts | 297° |
| 2026-04-30 14:13 | 0.26874 | 93.87612 | 33928 ft | 507 kts | 297° |
| 2026-04-30 14:14 | 0.29965 | 93.81285 | 33925 ft | 507 kts | 297° |
| 2026-04-30 14:14 | 0.33057 | 93.74957 | 33927 ft | 507 kts | 297° |
| 2026-04-30 14:15 | 0.36156 | 93.68616 | 33927 ft | 507 kts | 297° |
| 2026-04-30 14:15 | 0.39252 | 93.62275 | 33927 ft | 508 kts | 297° |
| 2026-04-30 14:16 | 0.42331 | 93.55959 | 33926 ft | 508 kts | 297° |
| 2026-04-30 14:16 | 0.45426 | 93.49607 | 33932 ft | 509 kts | 297° |
| 2026-04-30 14:17 | 0.48528 | 93.43241 | 33929 ft | 509 kts | 297° |
| 2026-04-30 14:17 | 0.51629 | 93.36878 | 33928 ft | 510 kts | 297° |
| 2026-04-30 14:18 | 0.54731 | 93.30513 | 33931 ft | 510 kts | 297° |
| 2026-04-30 14:18 | 0.59396 | 93.20940 | 33928 ft | 510 kts | 297° |
| 2026-04-30 14:19 | 0.64054 | 93.11381 | 33929 ft | 510 kts | 297° |
| 2026-04-30 14:20 | 0.67166 | 93.04995 | 33927 ft | 510 kts | 297° |
| 2026-04-30 14:20 | 0.71817 | 92.95450 | 33932 ft | 511 kts | 297° |
| 2026-04-30 14:21 | 0.74916 | 92.89089 | 33931 ft | 511 kts | 297° |
| 2026-04-30 14:22 | 0.79585 | 92.79506 | 33929 ft | 511 kts | 297° |
| 2026-04-30 14:22 | 0.84247 | 92.69935 | 33931 ft | 511 kts | 297° |
| 2026-04-30 14:23 | 0.90475 | 92.57148 | 33928 ft | 511 kts | 297° |
| 2026-04-30 14:24 | 0.95139 | 92.47572 | 33932 ft | 511 kts | 297° |
| 2026-04-30 14:25 | 1.01361 | 92.34797 | 33930 ft | 511 kts | 297° |
| 2026-04-30 14:26 | 1.06021 | 92.25227 | 33931 ft | 510 kts | 296° |
| 2026-04-30 14:27 | 1.10670 | 92.15678 | 33931 ft | 510 kts | 296° |
| 2026-04-30 14:27 | 1.13771 | 92.09309 | 33932 ft | 509 kts | 296° |
| 2026-04-30 14:28 | 1.18415 | 91.99767 | 33931 ft | 509 kts | 296° |
| 2026-04-30 14:28 | 1.21530 | 91.93465 | 33931 ft | 509 kts | 297° |
| 2026-04-30 14:29 | 1.27314 | 91.81883 | 33931 ft | 508 kts | 297° |
| 2026-04-30 14:31 | 1.35707 | 91.65011 | 33937 ft | 508 kts | 297° |
| 2026-04-30 14:31 | 1.40429 | 91.55511 | 33936 ft | 508 kts | 297° |
| 2026-04-30 14:32 | 1.45135 | 91.46046 | 33934 ft | 509 kts | 296° |
| 2026-04-30 14:33 | 1.48284 | 91.39711 | 33935 ft | 509 kts | 296° |
| 2026-04-30 14:33 | 1.53010 | 91.30201 | 33935 ft | 510 kts | 296° |
| 2026-04-30 14:34 | 1.56169 | 91.23845 | 33934 ft | 510 kts | 296° |
| 2026-04-30 14:34 | 1.59324 | 91.17495 | 33934 ft | 511 kts | 296° |
| 2026-04-30 14:35 | 1.64047 | 91.07990 | 33934 ft | 511 kts | 296° |
| 2026-04-30 14:36 | 1.67206 | 91.01630 | 33934 ft | 511 kts | 296° |
| 2026-04-30 14:36 | 1.70378 | 90.95246 | 33932 ft | 512 kts | 296° |
| 2026-04-30 14:37 | 1.73546 | 90.88867 | 33934 ft | 512 kts | 296° |
| 2026-04-30 14:37 | 1.76713 | 90.82491 | 33934 ft | 512 kts | 296° |
| 2026-04-30 14:38 | 1.79880 | 90.76113 | 33936 ft | 512 kts | 296° |
| 2026-04-30 14:38 | 1.83041 | 90.69746 | 33934 ft | 511 kts | 296° |
| 2026-04-30 14:39 | 1.86183 | 90.63418 | 33933 ft | 511 kts | 297° |
| 2026-04-30 14:39 | 1.89341 | 90.57058 | 33936 ft | 510 kts | 296° |
| 2026-04-30 14:40 | 1.94068 | 90.47535 | 33935 ft | 510 kts | 297° |
| 2026-04-30 14:40 | 1.97225 | 90.41174 | 33936 ft | 509 kts | 297° |
| 2026-04-30 14:41 | 2.00372 | 90.34831 | 33940 ft | 509 kts | 297° |
| 2026-04-30 14:41 | 2.03521 | 90.28485 | 33939 ft | 509 kts | 297° |
| 2026-04-30 14:42 | 2.06668 | 90.22142 | 33941 ft | 509 kts | 297° |
| 2026-04-30 14:42 | 2.09792 | 90.15844 | 33939 ft | 508 kts | 297° |
| 2026-04-30 14:43 | 2.12933 | 90.09511 | 33938 ft | 508 kts | 297° |
| 2026-04-30 14:43 | 2.16074 | 90.03178 | 33940 ft | 508 kts | 297° |
| 2026-04-30 14:44 | 2.19208 | 89.96857 | 33939 ft | 508 kts | 297° |
| 2026-04-30 14:44 | 2.21820 | 89.91587 | 33941 ft | 508 kts | 297° |
| 2026-04-30 14:45 | 2.24950 | 89.85273 | 33940 ft | 507 kts | 297° |
| 2026-04-30 14:45 | 2.28082 | 89.78954 | 33940 ft | 507 kts | 297° |
| 2026-04-30 14:46 | 2.31215 | 89.72631 | 33941 ft | 506 kts | 297° |
| 2026-04-30 14:46 | 2.34337 | 89.66326 | 33941 ft | 506 kts | 296° |
| 2026-04-30 14:47 | 2.37460 | 89.60013 | 33940 ft | 505 kts | 296° |
| 2026-04-30 14:47 | 2.40574 | 89.53721 | 33940 ft | 505 kts | 296° |
| 2026-04-30 14:48 | 2.43693 | 89.47416 | 33942 ft | 505 kts | 296° |
| 2026-04-30 14:48 | 2.46788 | 89.41158 | 33942 ft | 505 kts | 297° |
| 2026-04-30 14:49 | 2.49903 | 89.34859 | 33943 ft | 506 kts | 296° |
| 2026-04-30 14:49 | 2.53026 | 89.28545 | 33942 ft | 506 kts | 296° |
| 2026-04-30 14:50 | 2.57695 | 89.19100 | 33947 ft | 506 kts | 296° |
| 2026-04-30 14:51 | 2.62376 | 89.09629 | 33945 ft | 507 kts | 296° |
| 2026-04-30 14:52 | 2.67065 | 89.00141 | 33944 ft | 507 kts | 296° |
| 2026-04-30 14:52 | 2.71752 | 88.90654 | 33944 ft | 507 kts | 296° |
| 2026-04-30 14:53 | 2.76417 | 88.81210 | 33948 ft | 507 kts | 296° |
| 2026-04-30 14:54 | 2.82658 | 88.68571 | 33945 ft | 506 kts | 296° |
| 2026-04-30 14:55 | 2.87342 | 88.59080 | 33947 ft | 506 kts | 296° |
| 2026-04-30 14:56 | 2.93575 | 88.46451 | 33948 ft | 506 kts | 296° |
| 2026-04-30 14:57 | 2.98477 | 88.37079 | 33946 ft | 507 kts | 298° |
| 2026-04-30 14:58 | 3.05064 | 88.24670 | 33946 ft | 507 kts | 298° |
| 2026-04-30 14:58 | 3.09975 | 88.15336 | 33949 ft | 507 kts | 297° |
| 2026-04-30 15:00 | 3.18212 | 87.99682 | 33953 ft | 507 kts | 297° |
| 2026-04-30 15:01 | 3.24753 | 87.87245 | 33953 ft | 506 kts | 297° |
| 2026-04-30 15:01 | 3.29670 | 87.77894 | 33948 ft | 506 kts | 297° |
| 2026-04-30 15:02 | 3.32939 | 87.71618 | 33951 ft | 506 kts | 296° |
| 2026-04-30 15:03 | 3.40729 | 87.55892 | 33950 ft | 505 kts | 296° |
| 2026-04-30 15:04 | 3.48559 | 87.40153 | 33951 ft | 505 kts | 296° |
| 2026-04-30 15:06 | 3.56379 | 87.24440 | 33952 ft | 504 kts | 295° |
| 2026-04-30 15:07 | 3.62628 | 87.11876 | 33953 ft | 503 kts | 295° |
| 2026-04-30 15:08 | 3.68847 | 86.99368 | 33949 ft | 503 kts | 295° |
| 2026-04-30 15:09 | 3.76632 | 86.83702 | 33952 ft | 502 kts | 295° |
| 2026-04-30 15:10 | 3.82842 | 86.71199 | 33954 ft | 502 kts | 295° |
| 2026-04-30 15:11 | 3.92146 | 86.52456 | 33951 ft | 501 kts | 295° |
| 2026-04-30 15:13 | 3.99901 | 86.36826 | 33953 ft | 500 kts | 295° |
| 2026-04-30 15:14 | 4.10712 | 86.15020 | 33950 ft | 500 kts | 295° |
| 2026-04-30 15:17 | 4.24610 | 85.86960 | 33957 ft | 500 kts | 295° |
| 2026-04-30 15:19 | 4.36966 | 85.61987 | 34450 ft | 499 kts | 295° |
| 2026-04-30 17:39 | 12.65854 | 68.25548 | 35931 ft | 485 kts | 303° |
| 2026-04-30 17:42 | 12.84283 | 67.96556 | 35933 ft | 486 kts | 303° |
| 2026-04-30 17:43 | 12.93527 | 67.82111 | 35933 ft | 486 kts | 303° |
| 2026-04-30 17:44 | 13.04629 | 67.64707 | 35933 ft | 486 kts | 303° |
| 2026-04-30 17:47 | 13.21260 | 67.38571 | 35934 ft | 487 kts | 303° |
| 2026-04-30 17:48 | 13.34193 | 67.18192 | 35936 ft | 486 kts | 303° |
| 2026-04-30 17:50 | 13.48953 | 66.94876 | 35938 ft | 487 kts | 303° |
| 2026-04-30 17:52 | 13.59396 | 66.78343 | 35937 ft | 487 kts | 303° |
| 2026-04-30 17:54 | 13.75945 | 66.52076 | 35936 ft | 486 kts | 302° |
| 2026-04-30 17:56 | 13.90644 | 66.28676 | 35938 ft | 487 kts | 302° |
| 2026-04-30 17:58 | 14.01631 | 66.11143 | 35941 ft | 486 kts | 302° |
| 2026-04-30 18:00 | 14.16278 | 65.87712 | 35939 ft | 485 kts | 302° |
| 2026-04-30 18:01 | 14.25382 | 65.73115 | 35946 ft | 485 kts | 302° |
| 2026-04-30 18:02 | 14.36301 | 65.55573 | 35938 ft | 484 kts | 302° |
| 2026-04-30 18:04 | 14.47173 | 65.38067 | 35937 ft | 483 kts | 302° |
| 2026-04-30 18:06 | 14.61651 | 65.14732 | 35936 ft | 482 kts | 302° |
| 2026-04-30 18:08 | 14.74382 | 64.94432 | 35935 ft | 481 kts | 302° |
| 2026-04-30 18:10 | 14.88885 | 64.71204 | 35937 ft | 481 kts | 302° |
| 2026-04-30 18:11 | 15.01573 | 64.50826 | 35934 ft | 481 kts | 302° |
| 2026-04-30 18:13 | 15.10611 | 64.36278 | 35931 ft | 480 kts | 302° |
| 2026-04-30 18:14 | 15.19622 | 64.21747 | 35933 ft | 479 kts | 302° |
| 2026-04-30 18:15 | 15.30387 | 64.04352 | 35931 ft | 478 kts | 302° |
| 2026-04-30 18:16 | 15.37555 | 63.92746 | 35932 ft | 478 kts | 302° |
| 2026-04-30 18:17 | 15.41117 | 63.86973 | 35933 ft | 478 kts | 302° |
| 2026-04-30 18:18 | 15.46490 | 63.78256 | 35932 ft | 478 kts | 302° |
| 2026-04-30 18:18 | 15.50067 | 63.72446 | 35929 ft | 477 kts | 302° |
| 2026-04-30 18:19 | 15.53637 | 63.66644 | 35932 ft | 477 kts | 302° |
| 2026-04-30 18:19 | 15.57199 | 63.60850 | 35930 ft | 476 kts | 302° |
| 2026-04-30 18:20 | 15.60765 | 63.55045 | 35930 ft | 476 kts | 302° |
| 2026-04-30 18:20 | 15.64323 | 63.49250 | 35930 ft | 476 kts | 302° |
| 2026-04-30 18:21 | 15.67882 | 63.43448 | 35932 ft | 476 kts | 302° |
| 2026-04-30 18:21 | 15.71416 | 63.37682 | 35931 ft | 476 kts | 302° |
| 2026-04-30 18:22 | 15.74971 | 63.31877 | 35931 ft | 476 kts | 302° |
| 2026-04-30 18:22 | 15.80301 | 63.23166 | 35928 ft | 476 kts | 302° |
| 2026-04-30 18:23 | 15.83845 | 63.17367 | 35927 ft | 475 kts | 302° |
| 2026-04-30 18:23 | 15.87382 | 63.11577 | 35928 ft | 475 kts | 302° |
| 2026-04-30 18:24 | 15.92683 | 63.02888 | 35929 ft | 474 kts | 302° |
| 2026-04-30 18:25 | 15.96220 | 62.97086 | 35928 ft | 474 kts | 302° |
| 2026-04-30 18:25 | 16.01510 | 62.88399 | 35927 ft | 474 kts | 302° |
| 2026-04-30 18:26 | 16.06803 | 62.79696 | 35930 ft | 474 kts | 302° |
| 2026-04-30 18:27 | 16.12084 | 62.71004 | 35927 ft | 474 kts | 302° |
| 2026-04-30 18:28 | 16.17352 | 62.62321 | 35926 ft | 474 kts | 302° |
| 2026-04-30 18:28 | 16.22626 | 62.53618 | 35925 ft | 474 kts | 302° |
| 2026-04-30 18:29 | 16.29647 | 62.42017 | 35924 ft | 473 kts | 302° |
| 2026-04-30 18:30 | 16.36635 | 62.30451 | 35920 ft | 473 kts | 302° |
| 2026-04-30 18:31 | 16.41890 | 62.21742 | 35920 ft | 473 kts | 302° |
| 2026-04-30 18:32 | 16.47144 | 62.13023 | 35924 ft | 473 kts | 301° |
| 2026-04-30 18:33 | 16.52402 | 62.04287 | 35922 ft | 473 kts | 301° |
| 2026-04-30 18:33 | 16.57625 | 61.95598 | 35921 ft | 474 kts | 301° |
| 2026-04-30 18:34 | 16.62869 | 61.86862 | 35920 ft | 473 kts | 301° |
| 2026-04-30 18:35 | 16.66362 | 61.81036 | 35917 ft | 473 kts | 301° |
| 2026-04-30 18:35 | 16.69858 | 61.75204 | 35919 ft | 473 kts | 301° |
| 2026-04-30 18:36 | 16.75067 | 61.66505 | 35918 ft | 473 kts | 301° |
| 2026-04-30 18:37 | 16.80297 | 61.57757 | 35918 ft | 473 kts | 301° |
| 2026-04-30 18:37 | 16.83770 | 61.51941 | 35920 ft | 472 kts | 301° |
| 2026-04-30 18:38 | 16.87246 | 61.46115 | 35916 ft | 472 kts | 301° |
| 2026-04-30 18:38 | 16.90715 | 61.40296 | 35919 ft | 472 kts | 301° |
| 2026-04-30 18:39 | 16.94186 | 61.34470 | 35918 ft | 472 kts | 301° |
| 2026-04-30 18:39 | 16.97626 | 61.28689 | 35919 ft | 472 kts | 301° |
| 2026-04-30 18:40 | 17.01093 | 61.22860 | 35916 ft | 471 kts | 301° |
| 2026-04-30 18:40 | 17.03989 | 61.17986 | 35915 ft | 471 kts | 301° |
| 2026-04-30 18:41 | 17.07426 | 61.12196 | 35915 ft | 471 kts | 301° |
| 2026-04-30 18:41 | 17.10881 | 61.06372 | 35915 ft | 471 kts | 301° |
| 2026-04-30 18:42 | 17.14336 | 61.00543 | 35914 ft | 471 kts | 301° |
| 2026-04-30 18:42 | 17.19509 | 60.91807 | 35914 ft | 471 kts | 300° |
| 2026-04-30 18:45 | 17.38436 | 60.59745 | 35919 ft | 471 kts | 300° |
| 2026-04-30 18:46 | 17.41872 | 60.53907 | 35917 ft | 471 kts | 300° |
| 2026-04-30 18:46 | 17.45313 | 60.48055 | 35901 ft | 471 kts | 300° |
| 2026-04-30 18:47 | 17.48752 | 60.42203 | 35914 ft | 471 kts | 300° |
| 2026-04-30 18:47 | 17.52184 | 60.36358 | 35915 ft | 471 kts | 300° |
| 2026-04-30 18:48 | 17.55620 | 60.30500 | 35916 ft | 471 kts | 300° |
| 2026-04-30 18:48 | 17.59044 | 60.24657 | 35900 ft | 471 kts | 300° |
| 2026-04-30 18:49 | 17.62462 | 60.18819 | 35915 ft | 471 kts | 300° |
| 2026-04-30 18:49 | 17.65884 | 60.12970 | 35918 ft | 471 kts | 300° |
| 2026-04-30 18:50 | 17.69311 | 60.07105 | 35918 ft | 471 kts | 300° |
| 2026-04-30 18:50 | 17.72676 | 60.01193 | 35918 ft | 470 kts | 296° |
| 2026-04-30 18:51 | 17.75179 | 59.94885 | 35920 ft | 468 kts | 287° |
| 2026-04-30 18:51 | 17.77231 | 59.88402 | 35902 ft | 468 kts | 287° |
| 2026-04-30 18:52 | 17.79272 | 59.81947 | 35900 ft | 469 kts | 287° |
| 2026-04-30 18:52 | 17.81344 | 59.75472 | 35914 ft | 469 kts | 287° |
| 2026-04-30 18:53 | 17.83430 | 59.68984 | 35916 ft | 469 kts | 287° |
| 2026-04-30 18:53 | 17.85517 | 59.62492 | 35900 ft | 469 kts | 287° |
| 2026-04-30 18:54 | 17.87611 | 59.55969 | 35900 ft | 469 kts | 287° |
| 2026-04-30 18:54 | 17.89694 | 59.49469 | 35914 ft | 469 kts | 287° |
| 2026-04-30 18:55 | 17.91761 | 59.43010 | 35915 ft | 469 kts | 287° |
| 2026-04-30 18:55 | 17.94880 | 59.33246 | 35914 ft | 470 kts | 287° |
| 2026-04-30 18:56 | 17.97993 | 59.23482 | 35914 ft | 470 kts | 287° |
| 2026-04-30 18:57 | 18.01091 | 59.13748 | 35902 ft | 470 kts | 287° |
| 2026-04-30 18:57 | 18.03163 | 59.07228 | 35897 ft | 470 kts | 287° |
| 2026-04-30 18:58 | 18.06267 | 58.97442 | 35902 ft | 470 kts | 287° |
| 2026-04-30 18:59 | 18.09371 | 58.87640 | 35903 ft | 471 kts | 287° |
| 2026-04-30 19:00 | 18.13496 | 58.74583 | 35898 ft | 471 kts | 287° |
| 2026-04-30 19:01 | 18.17597 | 58.61564 | 35906 ft | 470 kts | 287° |
| 2026-04-30 19:02 | 18.20677 | 58.51767 | 35894 ft | 470 kts | 287° |
| 2026-04-30 19:03 | 18.24780 | 58.38686 | 35899 ft | 470 kts | 287° |
| 2026-04-30 19:04 | 18.28855 | 58.25658 | 35895 ft | 470 kts | 286° |
| 2026-04-30 19:05 | 18.32929 | 58.12599 | 35892 ft | 469 kts | 286° |
| 2026-04-30 19:06 | 18.36994 | 57.99533 | 35891 ft | 469 kts | 286° |
| 2026-04-30 19:06 | 18.40023 | 57.89738 | 35893 ft | 469 kts | 286° |
| 2026-04-30 19:07 | 18.43040 | 57.79926 | 35886 ft | 469 kts | 286° |
| 2026-04-30 19:08 | 18.47045 | 57.66881 | 35885 ft | 469 kts | 286° |
| 2026-04-30 19:09 | 18.50047 | 57.57080 | 35885 ft | 469 kts | 286° |
| 2026-04-30 19:09 | 18.52046 | 57.50542 | 35885 ft | 469 kts | 286° |
| 2026-04-30 19:10 | 18.56044 | 57.37444 | 35877 ft | 469 kts | 285° |
| 2026-04-30 19:11 | 18.59018 | 57.27673 | 35871 ft | 468 kts | 285° |
| 2026-04-30 19:12 | 18.61007 | 57.21129 | 35869 ft | 468 kts | 285° |
| 2026-04-30 19:12 | 18.62990 | 57.14594 | 35868 ft | 468 kts | 285° |
| 2026-04-30 19:13 | 18.66951 | 57.01520 | 35869 ft | 468 kts | 285° |
| 2026-04-30 19:14 | 18.68928 | 56.94977 | 35871 ft | 468 kts | 285° |
| 2026-04-30 19:14 | 18.70898 | 56.88450 | 35870 ft | 468 kts | 285° |
| 2026-04-30 19:15 | 18.72877 | 56.81886 | 35867 ft | 468 kts | 285° |
| 2026-04-30 19:15 | 18.75830 | 56.72072 | 35869 ft | 468 kts | 285° |
| 2026-04-30 19:16 | 18.77785 | 56.65562 | 35868 ft | 468 kts | 285° |
| 2026-04-30 19:17 | 18.80730 | 56.55741 | 35869 ft | 468 kts | 285° |
| 2026-04-30 19:17 | 18.83673 | 56.45907 | 35870 ft | 468 kts | 284° |
| 2026-04-30 19:18 | 18.86608 | 56.36078 | 35869 ft | 468 kts | 284° |
| 2026-04-30 19:19 | 18.88561 | 56.29524 | 35869 ft | 468 kts | 284° |
| 2026-04-30 19:19 | 18.91486 | 56.19695 | 35869 ft | 468 kts | 284° |
| 2026-04-30 19:20 | 18.93426 | 56.13162 | 35869 ft | 468 kts | 284° |
| 2026-04-30 19:21 | 18.96346 | 56.03312 | 35869 ft | 468 kts | 284° |
| 2026-04-30 19:22 | 19.00206 | 55.90179 | 35866 ft | 468 kts | 284° |
| 2026-04-30 19:23 | 19.05957 | 55.70496 | 35868 ft | 468 kts | 284° |
| 2026-04-30 19:24 | 19.08840 | 55.60640 | 35864 ft | 468 kts | 284° |
| 2026-04-30 19:25 | 19.13308 | 55.45319 | 35861 ft | 468 kts | 284° |
| 2026-04-30 19:26 | 19.17120 | 55.32203 | 35857 ft | 468 kts | 284° |
| 2026-04-30 19:27 | 19.19981 | 55.22333 | 35855 ft | 468 kts | 284° |
| 2026-04-30 19:28 | 19.22841 | 55.12447 | 35853 ft | 468 kts | 284° |
| 2026-04-30 19:29 | 19.26632 | 54.99306 | 35850 ft | 468 kts | 285° |
| 2026-04-30 19:30 | 19.30433 | 54.86095 | 35835 ft | 468 kts | 285° |
| 2026-04-30 19:31 | 19.34208 | 54.72930 | 35831 ft | 469 kts | 285° |
| 2026-04-30 19:31 | 19.37044 | 54.63019 | 35827 ft | 469 kts | 285° |
| 2026-04-30 19:32 | 19.38932 | 54.56405 | 35825 ft | 469 kts | 285° |
| 2026-04-30 19:32 | 19.40819 | 54.49786 | 35825 ft | 469 kts | 285° |
| 2026-04-30 19:33 | 19.42705 | 54.43162 | 35823 ft | 469 kts | 285° |
| 2026-04-30 19:33 | 19.44576 | 54.36581 | 35821 ft | 469 kts | 285° |
| 2026-04-30 19:34 | 19.46455 | 54.29961 | 35823 ft | 469 kts | 285° |
| 2026-04-30 19:35 | 19.49268 | 54.20028 | 35819 ft | 469 kts | 285° |
| 2026-04-30 19:35 | 19.51133 | 54.13431 | 35818 ft | 469 kts | 285° |
| 2026-04-30 19:36 | 19.53003 | 54.06806 | 35813 ft | 469 kts | 285° |
| 2026-04-30 19:36 | 19.55801 | 53.96874 | 35815 ft | 469 kts | 285° |
| 2026-04-30 19:37 | 19.57638 | 53.90234 | 35812 ft | 469 kts | 284° |
| 2026-04-30 19:37 | 19.59464 | 53.83615 | 35811 ft | 469 kts | 284° |
| 2026-04-30 19:38 | 19.61010 | 53.76929 | 35812 ft | 466 kts | 277° |
| 2026-04-30 19:38 | 19.61881 | 53.70117 | 35806 ft | 466 kts | 276° |
| 2026-04-30 19:39 | 19.62719 | 53.63276 | 35810 ft | 466 kts | 276° |
| 2026-04-30 19:39 | 19.63573 | 53.56459 | 35815 ft | 466 kts | 276° |
| 2026-04-30 19:40 | 19.64438 | 53.49674 | 35808 ft | 466 kts | 276° |
| 2026-04-30 19:40 | 19.65316 | 53.42815 | 35808 ft | 466 kts | 276° |
| 2026-04-30 19:41 | 19.66181 | 53.36036 | 35810 ft | 466 kts | 276° |
| 2026-04-30 19:41 | 19.67046 | 53.29232 | 35805 ft | 466 kts | 276° |
| 2026-04-30 19:42 | 19.67909 | 53.22416 | 35808 ft | 465 kts | 276° |
| 2026-04-30 19:42 | 19.68765 | 53.15628 | 35805 ft | 465 kts | 276° |
| 2026-04-30 19:43 | 19.69622 | 53.08820 | 35807 ft | 465 kts | 276° |
| 2026-04-30 19:44 | 19.70902 | 52.98603 | 35810 ft | 465 kts | 276° |
| 2026-04-30 19:44 | 19.71751 | 52.91803 | 35807 ft | 465 kts | 276° |
| 2026-04-30 19:45 | 19.72594 | 52.85029 | 35808 ft | 465 kts | 276° |
| 2026-04-30 19:45 | 19.73439 | 52.78222 | 35813 ft | 465 kts | 276° |
| 2026-04-30 19:46 | 19.74280 | 52.71422 | 35809 ft | 465 kts | 276° |
| 2026-04-30 19:46 | 19.75120 | 52.64605 | 35813 ft | 465 kts | 276° |
| 2026-04-30 19:47 | 19.75957 | 52.57791 | 35807 ft | 465 kts | 276° |
| 2026-04-30 19:47 | 19.76791 | 52.50987 | 35811 ft | 465 kts | 276° |
| 2026-04-30 19:48 | 19.77625 | 52.44162 | 35810 ft | 465 kts | 276° |
| 2026-04-30 19:48 | 19.78448 | 52.37393 | 35812 ft | 465 kts | 276° |
| 2026-04-30 19:49 | 19.79276 | 52.30575 | 35813 ft | 465 kts | 276° |
| 2026-04-30 19:49 | 19.80511 | 52.20350 | 35812 ft | 465 kts | 276° |
| 2026-04-30 19:50 | 19.81327 | 52.13575 | 35809 ft | 465 kts | 276° |
| 2026-04-30 19:50 | 19.82143 | 52.06771 | 35810 ft | 465 kts | 276° |
| 2026-04-30 19:51 | 19.82958 | 51.99958 | 35810 ft | 465 kts | 276° |
| 2026-04-30 19:51 | 19.83770 | 51.93139 | 35816 ft | 465 kts | 276° |
| 2026-04-30 19:52 | 19.84579 | 51.86328 | 35813 ft | 465 kts | 276° |
| 2026-04-30 19:52 | 19.85387 | 51.79509 | 35814 ft | 465 kts | 276° |
| 2026-04-30 19:53 | 19.86190 | 51.72701 | 35813 ft | 465 kts | 276° |
| 2026-04-30 19:53 | 19.86990 | 51.65898 | 35811 ft | 465 kts | 276° |
| 2026-04-30 19:54 | 19.87790 | 51.59072 | 35815 ft | 465 kts | 276° |
| 2026-04-30 19:54 | 19.88584 | 51.52276 | 35814 ft | 465 kts | 276° |
| 2026-04-30 19:55 | 19.89380 | 51.45443 | 35815 ft | 465 kts | 276° |
| 2026-04-30 19:55 | 19.90165 | 51.38673 | 35814 ft | 464 kts | 276° |
| 2026-04-30 19:56 | 19.90954 | 51.31855 | 35818 ft | 464 kts | 276° |
| 2026-04-30 19:56 | 19.91740 | 51.25030 | 35817 ft | 464 kts | 276° |
| 2026-04-30 19:57 | 19.92520 | 51.18245 | 35817 ft | 464 kts | 276° |
| 2026-04-30 19:57 | 19.93304 | 51.11399 | 35816 ft | 464 kts | 276° |
| 2026-04-30 19:58 | 19.94078 | 51.04614 | 35817 ft | 464 kts | 276° |
| 2026-04-30 19:58 | 19.94851 | 50.97808 | 35816 ft | 464 kts | 275° |
| 2026-04-30 19:59 | 19.95624 | 50.90989 | 35816 ft | 464 kts | 275° |
| 2026-04-30 20:00 | 19.96769 | 50.80834 | 35817 ft | 463 kts | 275° |
| 2026-04-30 20:00 | 19.97534 | 50.74027 | 35819 ft | 463 kts | 275° |
| 2026-04-30 20:01 | 19.98674 | 50.63837 | 35825 ft | 463 kts | 275° |
| 2026-04-30 20:01 | 19.99431 | 50.57037 | 35826 ft | 463 kts | 275° |
| 2026-04-30 20:02 | 20.00557 | 50.46873 | 35825 ft | 463 kts | 275° |
| 2026-04-30 20:03 | 20.01680 | 50.36690 | 35824 ft | 463 kts | 275° |
| 2026-04-30 20:03 | 20.02426 | 50.29898 | 35832 ft | 462 kts | 275° |
| 2026-04-30 20:04 | 20.03170 | 50.23098 | 35827 ft | 462 kts | 275° |
| 2026-04-30 20:05 | 20.04280 | 50.12905 | 35826 ft | 462 kts | 275° |
| 2026-04-30 20:05 | 20.05379 | 50.02751 | 35828 ft | 462 kts | 275° |
| 2026-04-30 20:06 | 20.06114 | 49.95935 | 35824 ft | 462 kts | 275° |
| 2026-04-30 20:06 | 20.06843 | 49.89146 | 35830 ft | 462 kts | 275° |
| 2026-04-30 20:07 | 20.07566 | 49.82390 | 35828 ft | 462 kts | 275° |
| 2026-04-30 20:08 | 20.08651 | 49.72208 | 35826 ft | 462 kts | 275° |
| 2026-04-30 20:08 | 20.09372 | 49.65412 | 35829 ft | 462 kts | 274° |
| 2026-04-30 20:09 | 20.10089 | 49.58627 | 35828 ft | 462 kts | 274° |
| 2026-04-30 20:09 | 20.11161 | 49.48435 | 35830 ft | 462 kts | 274° |
| 2026-04-30 20:10 | 20.12220 | 49.38304 | 35833 ft | 462 kts | 274° |
| 2026-04-30 20:11 | 20.13281 | 49.28108 | 35833 ft | 461 kts | 274° |
| 2026-04-30 20:11 | 20.13983 | 49.21323 | 35832 ft | 461 kts | 274° |
| 2026-04-30 20:12 | 20.15029 | 49.11173 | 35831 ft | 461 kts | 274° |
| 2026-04-30 20:13 | 20.15724 | 49.04395 | 35829 ft | 460 kts | 274° |
| 2026-04-30 20:13 | 20.16304 | 48.98717 | 35835 ft | 460 kts | 274° |
| 2026-04-30 20:14 | 20.16994 | 48.91941 | 35837 ft | 460 kts | 274° |
| 2026-04-30 20:14 | 20.17676 | 48.85210 | 35831 ft | 460 kts | 274° |
| 2026-04-30 20:15 | 20.18360 | 48.78444 | 35835 ft | 460 kts | 274° |
| 2026-04-30 20:15 | 20.19042 | 48.71667 | 35838 ft | 459 kts | 274° |
| 2026-04-30 20:16 | 20.19719 | 48.64911 | 35838 ft | 459 kts | 274° |
| 2026-04-30 20:16 | 20.20396 | 48.58133 | 35832 ft | 459 kts | 274° |
| 2026-04-30 20:17 | 20.21068 | 48.51373 | 35836 ft | 459 kts | 274° |
| 2026-04-30 20:17 | 20.21734 | 48.44653 | 35836 ft | 459 kts | 274° |
| 2026-04-30 20:18 | 20.22400 | 48.37905 | 35835 ft | 458 kts | 274° |
| 2026-04-30 20:18 | 20.23062 | 48.31147 | 35830 ft | 458 kts | 274° |
| 2026-04-30 20:19 | 20.23721 | 48.24385 | 35832 ft | 458 kts | 274° |
| 2026-04-30 20:19 | 20.24375 | 48.17635 | 35836 ft | 458 kts | 274° |
| 2026-04-30 20:20 | 20.25027 | 48.10887 | 35838 ft | 458 kts | 274° |
| 2026-04-30 20:20 | 20.25678 | 48.04133 | 35841 ft | 458 kts | 274° |
| 2026-04-30 20:21 | 20.26320 | 47.97439 | 35840 ft | 458 kts | 274° |
| 2026-04-30 20:21 | 20.26964 | 47.90695 | 35839 ft | 458 kts | 274° |
| 2026-04-30 20:22 | 20.27606 | 47.83940 | 35848 ft | 458 kts | 274° |
| 2026-04-30 20:22 | 20.28245 | 47.77197 | 35840 ft | 458 kts | 274° |
| 2026-04-30 20:23 | 20.28882 | 47.70445 | 35851 ft | 458 kts | 274° |
| 2026-04-30 20:23 | 20.29517 | 47.63687 | 35850 ft | 458 kts | 274° |
| 2026-04-30 20:24 | 20.30150 | 47.56918 | 35850 ft | 458 kts | 274° |
| 2026-04-30 20:24 | 20.30777 | 47.50186 | 35847 ft | 459 kts | 274° |
| 2026-04-30 20:25 | 20.31716 | 47.40048 | 35852 ft | 459 kts | 273° |
| 2026-04-30 20:26 | 20.32654 | 47.29871 | 35867 ft | 459 kts | 273° |
| 2026-04-30 20:26 | 20.33580 | 47.19741 | 35866 ft | 460 kts | 273° |
| 2026-04-30 20:27 | 20.34813 | 47.06169 | 35870 ft | 460 kts | 273° |
| 2026-04-30 20:28 | 20.36032 | 46.92626 | 35869 ft | 460 kts | 273° |
| 2026-04-30 20:30 | 20.37547 | 46.75639 | 35875 ft | 459 kts | 273° |
| 2026-04-30 20:31 | 20.39319 | 46.55373 | 35884 ft | 458 kts | 273° |
| 2026-04-30 20:32 | 20.40777 | 46.38481 | 35887 ft | 457 kts | 273° |
| 2026-04-30 20:33 | 20.41641 | 46.28375 | 35888 ft | 456 kts | 272° |
| 2026-04-30 20:34 | 20.42496 | 46.18316 | 35887 ft | 456 kts | 273° |
| 2026-04-30 20:35 | 20.43349 | 46.08210 | 35893 ft | 456 kts | 272° |
| 2026-04-30 20:35 | 20.44195 | 45.98113 | 35896 ft | 456 kts | 273° |
| 2026-04-30 20:36 | 20.44757 | 45.91358 | 35891 ft | 456 kts | 273° |
| 2026-04-30 20:37 | 20.45594 | 45.81256 | 35892 ft | 455 kts | 272° |
| 2026-04-30 20:37 | 20.46144 | 45.74581 | 35897 ft | 455 kts | 272° |
| 2026-04-30 20:38 | 20.46695 | 45.67851 | 35900 ft | 455 kts | 272° |
| 2026-04-30 20:38 | 20.47243 | 45.61125 | 35905 ft | 454 kts | 272° |
| 2026-04-30 20:39 | 20.48057 | 45.51092 | 35912 ft | 454 kts | 272° |
| 2026-04-30 20:40 | 20.48866 | 45.41028 | 35930 ft | 454 kts | 272° |
| 2026-04-30 20:40 | 20.49403 | 45.34318 | 35936 ft | 454 kts | 272° |
| 2026-04-30 20:41 | 20.50179 | 45.24228 | 35939 ft | 453 kts | 270° |
| 2026-04-30 20:41 | 20.49881 | 45.17536 | 35942 ft | 451 kts | 261° |
| 2026-04-30 20:42 | 20.48700 | 45.10973 | 35944 ft | 450 kts | 257° |
| 2026-04-30 20:43 | 20.46718 | 45.01208 | 35928 ft | 450 kts | 257° |
| 2026-04-30 20:43 | 20.45411 | 44.94678 | 35921 ft | 450 kts | 257° |
| 2026-04-30 20:44 | 20.43468 | 44.84876 | 35911 ft | 451 kts | 257° |
| 2026-04-30 20:45 | 20.40879 | 44.71835 | 35914 ft | 450 kts | 257° |
| 2026-04-30 20:45 | 20.39585 | 44.65340 | 35911 ft | 450 kts | 257° |
| 2026-04-30 20:46 | 20.36970 | 44.52255 | 35917 ft | 450 kts | 257° |
| 2026-04-30 20:47 | 20.35009 | 44.42483 | 35920 ft | 449 kts | 257° |
| 2026-04-30 20:48 | 20.33044 | 44.32715 | 35926 ft | 449 kts | 257° |
| 2026-04-30 20:48 | 20.31733 | 44.26216 | 35933 ft | 448 kts | 257° |
| 2026-04-30 20:49 | 20.30427 | 44.19752 | 35936 ft | 448 kts | 257° |
| 2026-04-30 20:50 | 20.28458 | 44.10032 | 35935 ft | 447 kts | 257° |
| 2026-04-30 20:50 | 20.27141 | 44.03551 | 35937 ft | 447 kts | 257° |
| 2026-04-30 20:51 | 20.25825 | 43.97084 | 35943 ft | 446 kts | 257° |
| 2026-04-30 20:51 | 20.23857 | 43.87437 | 35942 ft | 446 kts | 257° |
| 2026-04-30 20:52 | 20.22539 | 43.80991 | 35947 ft | 445 kts | 257° |
| 2026-04-30 20:53 | 20.20556 | 43.71319 | 35951 ft | 445 kts | 257° |
| 2026-04-30 20:53 | 20.19233 | 43.64883 | 35954 ft | 445 kts | 257° |
| 2026-04-30 20:54 | 20.17237 | 43.55194 | 35965 ft | 446 kts | 257° |
| 2026-04-30 20:55 | 20.15248 | 43.45565 | 35970 ft | 447 kts | 257° |
| 2026-04-30 20:55 | 20.13902 | 43.39068 | 35978 ft | 447 kts | 257° |
| 2026-04-30 20:56 | 20.11902 | 43.29432 | 35986 ft | 448 kts | 257° |
| 2026-04-30 20:57 | 20.09871 | 43.19676 | 35995 ft | 448 kts | 257° |
| 2026-04-30 20:57 | 20.08517 | 43.13191 | 36001 ft | 449 kts | 257° |
| 2026-04-30 20:58 | 20.06715 | 43.04571 | 36009 ft | 448 kts | 257° |
| 2026-04-30 20:58 | 20.05136 | 42.97039 | 36016 ft | 448 kts | 257° |
| 2026-04-30 20:59 | 20.03320 | 42.88402 | 36032 ft | 448 kts | 256° |
| 2026-04-30 21:00 | 20.00576 | 42.75510 | 36041 ft | 448 kts | 256° |
| 2026-04-30 21:01 | 19.98625 | 42.65782 | 36056 ft | 448 kts | 262° |
| 2026-04-30 21:02 | 19.98575 | 42.55829 | 36052 ft | 451 kts | 275° |
| 2026-04-30 21:02 | 19.99406 | 42.49259 | 36053 ft | 452 kts | 276° |
| 2026-04-30 21:03 | 20.00296 | 42.42647 | 36055 ft | 452 kts | 275° |
| 2026-04-30 21:03 | 20.01157 | 42.36050 | 36059 ft | 451 kts | 275° |
| 2026-04-30 21:04 | 20.01998 | 42.29434 | 36067 ft | 450 kts | 275° |
| 2026-04-30 21:04 | 20.03240 | 42.19545 | 36092 ft | 449 kts | 275° |
| 2026-04-30 21:05 | 20.04064 | 42.12954 | 36103 ft | 449 kts | 275° |
| 2026-04-30 21:05 | 20.04884 | 42.06386 | 36116 ft | 448 kts | 275° |
| 2026-04-30 21:06 | 20.05700 | 41.99828 | 36118 ft | 449 kts | 275° |
| 2026-04-30 21:06 | 20.06518 | 41.93238 | 36125 ft | 449 kts | 275° |
| 2026-04-30 21:07 | 20.07331 | 41.86657 | 36135 ft | 449 kts | 275° |
| 2026-04-30 21:07 | 20.08145 | 41.80058 | 36142 ft | 450 kts | 275° |
| 2026-04-30 21:08 | 20.08957 | 41.73462 | 36153 ft | 450 kts | 275° |
| 2026-04-30 21:08 | 20.09765 | 41.66862 | 36152 ft | 450 kts | 275° |
| 2026-04-30 21:09 | 20.10572 | 41.60266 | 36154 ft | 450 kts | 275° |
| 2026-04-30 21:09 | 20.11376 | 41.53661 | 36155 ft | 449 kts | 275° |
| 2026-04-30 21:10 | 20.12164 | 41.47167 | 36147 ft | 449 kts | 275° |
| 2026-04-30 21:10 | 20.12968 | 41.40519 | 36136 ft | 448 kts | 275° |
| 2026-04-30 21:11 | 20.13762 | 41.33944 | 36122 ft | 447 kts | 274° |
| 2026-04-30 21:11 | 20.14552 | 41.27370 | 36108 ft | 447 kts | 274° |
| 2026-04-30 21:12 | 20.15331 | 41.20870 | 36092 ft | 447 kts | 274° |
| 2026-04-30 21:12 | 20.16122 | 41.14249 | 36062 ft | 447 kts | 274° |
| 2026-04-30 21:13 | 20.16904 | 41.07686 | 36050 ft | 446 kts | 274° |
| 2026-04-30 21:13 | 20.17674 | 41.01202 | 36032 ft | 444 kts | 274° |
| 2026-04-30 21:14 | 20.18447 | 40.94671 | 36016 ft | 443 kts | 274° |
| 2026-04-30 21:14 | 20.19212 | 40.88179 | 36005 ft | 442 kts | 274° |
| 2026-04-30 21:15 | 20.19967 | 40.81775 | 35983 ft | 429 kts | 274° |
| 2026-04-30 21:15 | 20.20695 | 40.75582 | 35886 ft | 413 kts | 274° |
| 2026-04-30 21:16 | 20.21054 | 40.72566 | 35538 ft | 409 kts | 275° |
| 2026-04-30 21:16 | 20.21647 | 40.69608 | 35122 ft | 408 kts | 282° |
| 2026-04-30 21:16 | 20.22507 | 40.66724 | 34681 ft | 407 kts | 285° |
| 2026-04-30 21:16 | 20.23541 | 40.63921 | 34228 ft | 408 kts | 290° |
| 2026-04-30 21:17 | 20.24816 | 40.61220 | 33747 ft | 408 kts | 293° |
| 2026-04-30 21:17 | 20.26155 | 40.58566 | 33248 ft | 406 kts | 293° |
| 2026-04-30 21:17 | 20.27502 | 40.55932 | 32783 ft | 402 kts | 294° |
| 2026-04-30 21:17 | 20.28832 | 40.53325 | 32324 ft | 399 kts | 294° |
| 2026-04-30 21:18 | 20.30132 | 40.50757 | 31882 ft | 396 kts | 293° |
| 2026-04-30 21:18 | 20.31431 | 40.48177 | 31436 ft | 393 kts | 293° |
| 2026-04-30 21:18 | 20.32710 | 40.45624 | 30995 ft | 390 kts | 293° |
| 2026-04-30 21:18 | 20.33983 | 40.43079 | 30550 ft | 387 kts | 293° |
| 2026-04-30 21:19 | 20.35245 | 40.40549 | 30114 ft | 385 kts | 293° |
| 2026-04-30 21:19 | 20.36497 | 40.38041 | 29614 ft | 382 kts | 294° |
| 2026-04-30 21:19 | 20.37741 | 40.35546 | 29134 ft | 379 kts | 294° |
| 2026-04-30 21:19 | 20.38970 | 40.33082 | 28676 ft | 375 kts | 294° |
| 2026-04-30 21:20 | 20.40190 | 40.30635 | 28243 ft | 372 kts | 295° |
| 2026-04-30 21:20 | 20.41401 | 40.28206 | 27816 ft | 369 kts | 295° |
| 2026-04-30 21:20 | 20.42603 | 40.25795 | 27386 ft | 366 kts | 295° |
| 2026-04-30 21:20 | 20.43794 | 40.23406 | 26954 ft | 363 kts | 295° |
| 2026-04-30 21:21 | 20.44962 | 40.21062 | 26542 ft | 361 kts | 296° |
| 2026-04-30 21:21 | 20.46138 | 40.18699 | 26138 ft | 359 kts | 296° |
| 2026-04-30 21:21 | 20.48469 | 40.14013 | 25307 ft | 356 kts | 297° |
| 2026-04-30 21:22 | 20.49624 | 40.11691 | 24905 ft | 355 kts | 297° |
| 2026-04-30 21:22 | 20.53083 | 40.04729 | 23661 ft | 354 kts | 298° |
| 2026-04-30 21:23 | 20.54234 | 40.02411 | 23202 ft | 354 kts | 298° |
| 2026-04-30 21:23 | 20.55388 | 40.00087 | 22748 ft | 353 kts | 298° |
| 2026-04-30 21:23 | 20.57672 | 39.95485 | 21908 ft | 349 kts | 297° |
| 2026-04-30 21:24 | 20.58804 | 39.93200 | 21502 ft | 348 kts | 297° |
| 2026-04-30 21:24 | 20.59933 | 39.90922 | 21092 ft | 346 kts | 297° |
| 2026-04-30 21:24 | 20.61054 | 39.88658 | 20683 ft | 345 kts | 297° |
| 2026-04-30 21:24 | 20.62177 | 39.86390 | 20268 ft | 344 kts | 297° |
| 2026-04-30 21:25 | 20.64394 | 39.81908 | 19479 ft | 343 kts | 297° |
| 2026-04-30 21:25 | 20.65520 | 39.79630 | 19054 ft | 343 kts | 296° |
| 2026-04-30 21:25 | 20.66623 | 39.77398 | 18635 ft | 344 kts | 296° |
| 2026-04-30 21:26 | 20.68855 | 39.72877 | 17775 ft | 344 kts | 296° |
| 2026-04-30 21:26 | 20.69969 | 39.70621 | 17330 ft | 343 kts | 296° |
| 2026-04-30 21:27 | 20.72194 | 39.66110 | 16491 ft | 342 kts | 296° |
| 2026-04-30 21:27 | 20.73299 | 39.63866 | 16083 ft | 341 kts | 296° |
| 2026-04-30 21:27 | 20.74406 | 39.61620 | 15685 ft | 341 kts | 296° |
| 2026-04-30 21:28 | 20.76614 | 39.57136 | 14862 ft | 341 kts | 296° |
| 2026-04-30 21:28 | 20.77721 | 39.54887 | 14473 ft | 340 kts | 295° |
| 2026-04-30 21:28 | 20.80357 | 39.50712 | 13712 ft | 341 kts | 309° |
| 2026-04-30 21:29 | 20.81934 | 39.48848 | 13272 ft | 341 kts | 310° |
| 2026-04-30 21:29 | 20.86509 | 39.43363 | 12081 ft | 321 kts | 308° |
| 2026-04-30 21:30 | 20.89421 | 39.39746 | 11336 ft | 321 kts | 309° |
| 2026-04-30 21:31 | 20.93662 | 39.34501 | 10431 ft | 302 kts | 309° |
| 2026-04-30 21:31 | 20.96739 | 39.31932 | 10162 ft | 273 kts | 333° |
| 2026-04-30 21:32 | 21.00215 | 39.30266 | 9776 ft | 283 kts | 333° |
| 2026-04-30 21:32 | 21.02004 | 39.29395 | 9433 ft | 285 kts | 333° |
| 2026-04-30 21:32 | 21.03796 | 39.28517 | 9257 ft | 278 kts | 333° |
| 2026-04-30 21:32 | 21.05521 | 39.27668 | 9098 ft | 266 kts | 333° |
| 2026-04-30 21:33 | 21.07157 | 39.26862 | 8758 ft | 250 kts | 333° |
| 2026-04-30 21:33 | 21.10392 | 39.26334 | 8288 ft | 238 kts | 7° |
| 2026-04-30 21:33 | 21.12057 | 39.26660 | 8073 ft | 246 kts | 8° |
| 2026-04-30 21:34 | 21.13761 | 39.26997 | 7838 ft | 251 kts | 8° |
| 2026-04-30 21:34 | 21.17195 | 39.27676 | 7347 ft | 248 kts | 8° |
| 2026-04-30 21:34 | 21.18876 | 39.28007 | 7105 ft | 245 kts | 8° |
| 2026-04-30 21:35 | 21.20542 | 39.28332 | 6865 ft | 241 kts | 8° |
| 2026-04-30 21:35 | 21.22184 | 39.28650 | 6635 ft | 238 kts | 8° |
| 2026-04-30 21:35 | 21.23789 | 39.28962 | 6411 ft | 236 kts | 8° |
| 2026-04-30 21:35 | 21.25409 | 39.29276 | 6174 ft | 236 kts | 8° |
| 2026-04-30 21:36 | 21.27033 | 39.29546 | 5929 ft | 235 kts | 357° |
| 2026-04-30 21:36 | 21.28602 | 39.29156 | 5716 ft | 231 kts | 336° |
| 2026-04-30 21:37 | 21.33208 | 39.27306 | 5028 ft | 234 kts | 338° |
| 2026-04-30 21:37 | 21.34707 | 39.26715 | 4802 ft | 230 kts | 338° |
| 2026-04-30 21:37 | 21.36207 | 39.26124 | 4578 ft | 225 kts | 338° |
| 2026-04-30 21:37 | 21.37641 | 39.25558 | 4403 ft | 218 kts | 338° |
| 2026-04-30 21:38 | 21.39041 | 39.25006 | 4134 ft | 207 kts | 338° |
| 2026-04-30 21:38 | 21.40355 | 39.24488 | 3944 ft | 199 kts | 338° |
| 2026-04-30 21:38 | 21.41660 | 39.23984 | 3765 ft | 201 kts | 339° |
| 2026-04-30 21:38 | 21.42984 | 39.23491 | 3569 ft | 201 kts | 338° |
| 2026-04-30 21:39 | 21.44296 | 39.22986 | 3383 ft | 200 kts | 338° |
| 2026-04-30 21:39 | 21.45608 | 39.22471 | 3186 ft | 201 kts | 338° |
| 2026-04-30 21:39 | 21.46907 | 39.21959 | 3094 ft | 196 kts | 338° |
| 2026-04-30 21:39 | 21.48172 | 39.21459 | 3012 ft | 193 kts | 339° |
| 2026-04-30 21:40 | 21.49435 | 39.20958 | 2940 ft | 194 kts | 338° |
| 2026-04-30 21:40 | 21.50697 | 39.20457 | 2869 ft | 194 kts | 339° |
| 2026-04-30 21:40 | 21.51964 | 39.19954 | 2829 ft | 194 kts | 339° |
| 2026-04-30 21:40 | 21.53216 | 39.19459 | 2756 ft | 192 kts | 339° |
| 2026-04-30 21:41 | 21.54491 | 39.18954 | 2554 ft | 195 kts | 340° |
| 2026-04-30 21:41 | 21.55756 | 39.18452 | 2325 ft | 192 kts | 340° |
| 2026-04-30 21:41 | 21.56951 | 39.17978 | 2099 ft | 181 kts | 340° |
| 2026-04-30 21:41 | 21.58094 | 39.17524 | 1840 ft | 170 kts | 340° |
| 2026-04-30 21:42 | 21.59177 | 39.17094 | 1645 ft | 163 kts | 341° |
| 2026-04-30 21:42 | 21.60241 | 39.16672 | 1424 ft | 163 kts | 341° |
| 2026-04-30 21:42 | 21.60930 | 39.16400 | 1276 ft | 156 kts | 341° |
| 2026-04-30 21:42 | 21.62014 | 39.15968 | 1072 ft | 144 kts | 341° |
| 2026-04-30 21:43 | 21.62968 | 39.15590 | 899 ft | 147 kts | 341° |
| 2026-04-30 21:43 | 21.63605 | 39.15338 | 756 ft | 148 kts | 341° |
| 2026-04-30 21:43 | 21.64915 | 39.14816 | 511 ft | 150 kts | 340° |
| 2026-04-30 21:43 | 21.65556 | 39.14562 | 377 ft | 147 kts | 340° |
| 2026-04-30 21:44 | 21.66830 | 39.14056 | 114 ft | 146 kts | 340° |
| 2026-04-30 21:44 | 21.67762 | 39.13677 | 33 ft | 138 kts | 341° |
| 2026-04-30 21:44 | 21.68542 | 39.13371 | 28 ft | 94 kts | 339° |
| 2026-04-30 21:44 | 21.68878 | 39.13240 | 28 ft | 58 kts | 340° |
| 2026-04-30 21:45 | 21.69123 | 39.13191 | 28 ft | 26 kts | 8° |
| 2026-04-30 21:45 | 21.69287 | 39.13229 | 28 ft | 18 kts | 19° |
| 2026-04-30 21:45 | 21.69370 | 39.13318 | 28 ft | 18 kts | 66° |
| 2026-04-30 21:45 | 21.69402 | 39.13400 | 29 ft | 18 kts | 67° |
| 2026-04-30 21:46 | 21.69497 | 39.13456 | 29 ft | 18 kts | 348° |
| 2026-04-30 21:46 | 21.69598 | 39.13416 | 29 ft | 11 kts | 338° |
| 2026-04-30 21:46 | 21.69663 | 39.13417 | 29 ft | 8 kts | 44° |
| 2026-04-30 21:46 | 21.69671 | 39.13453 | 29 ft | 5 kts | 79° |
| 2026-04-30 21:47 | 21.69676 | 39.13475 | 29 ft | 0 kts | 75° |